Time;durP1;ratioP1;P1;durP2;ratioP2;P2;SDS_P1;SDS_P2;PMS_P1;PMS_P2;Temp;Humidity;BMP_temperature;BMP_pressure;BME280_temperature;BME280_humidity;BME280_pressure;Samples;Min_cycle;Max_cycle;Signal;HPM_P1;HPM_P2
2021/08/15 00:00:59;;;;;;;12.60;6.43;;;15.40;99.90;;;;;;4988510;28;20029;-96
2021/08/15 00:03:28;;;;;;;11.02;6.65;;;15.30;99.90;;;;;;4970998;28;20094;-96
2021/08/15 00:05:53;;;;;;;11.90;6.82;;;15.40;99.90;;;;;;4975927;28;20022;-95
2021/08/15 00:08:19;;;;;;;14.32;6.55;;;15.40;99.90;;;;;;4977418;28;20011;-95
2021/08/15 00:10:45;;;;;;;12.63;6.72;;;15.40;99.90;;;;;;4993583;28;20027;-96
2021/08/15 00:13:14;;;;;;;14.52;6.43;;;15.40;99.90;;;;;;4994670;28;20070;-95
2021/08/15 00:15:39;;;;;;;18.40;7.85;;;15.30;99.90;;;;;;4971211;28;20412;-95
2021/08/15 00:18:05;;;;;;;12.43;6.63;;;15.40;99.90;;;;;;4968388;28;20034;-95
2021/08/15 00:20:31;;;;;;;11.10;6.68;;;15.40;99.90;;;;;;4967289;28;20034;-95
2021/08/15 00:22:58;;;;;;;15.80;7.07;;;15.40;99.90;;;;;;4966390;28;20055;-93
2021/08/15 00:25:26;;;;;;;14.68;6.63;;;15.40;99.90;;;;;;4968741;28;20030;-95
2021/08/15 00:27:52;;;;;;;12.55;8.20;;;15.30;99.90;;;;;;4966588;28;20026;-95
2021/08/15 00:30:18;;;;;;;11.20;6.60;;;15.30;99.90;;;;;;4966200;28;20069;-94
2021/08/15 00:32:45;;;;;;;14.63;6.68;;;15.30;99.90;;;;;;4966092;28;20069;-95
2021/08/15 00:35:13;;;;;;;11.30;6.85;;;15.30;99.90;;;;;;4967927;28;20027;-96
2021/08/15 00:37:39;;;;;;;11.63;6.85;;;15.30;99.90;;;;;;4982791;28;20058;-93
2021/08/15 00:40:06;;;;;;;11.68;6.05;;;15.20;99.90;;;;;;4968152;28;20030;-94
2021/08/15 00:42:35;;;;;;;10.73;6.88;;;15.20;99.90;;;;;;5003815;28;20059;-96
2021/08/15 00:45:01;;;;;;;11.02;6.82;;;15.30;99.90;;;;;;4981717;28;20029;-96
2021/08/15 00:47:30;;;;;;;10.15;5.57;;;15.30;99.90;;;;;;4993485;28;20023;-96
2021/08/15 00:49:56;;;;;;;13.23;7.35;;;15.40;99.90;;;;;;4985673;28;20029;-96
2021/08/15 00:52:22;;;;;;;11.82;6.90;;;15.40;99.90;;;;;;4999958;28;20030;-96
2021/08/15 00:54:48;;;;;;;15.98;7.78;;;15.40;99.90;;;;;;4991125;28;20097;-94
2021/08/15 00:57:16;;;;;;;15.27;7.93;;;15.30;99.90;;;;;;4991528;28;20026;-95
2021/08/15 00:59:45;;;;;;;13.75;7.53;;;15.30;99.90;;;;;;4973110;28;20038;-96
2021/08/15 01:02:11;;;;;;;11.30;6.72;;;15.30;99.90;;;;;;4973613;28;20031;-96
2021/08/15 01:04:39;;;;;;;12.60;6.88;;;15.30;99.90;;;;;;4963362;28;20109;-96
2021/08/15 01:07:08;;;;;;;12.63;7.50;;;15.30;99.90;;;;;;4959406;28;20393;-96
2021/08/15 01:09:34;;;;;;;13.07;7.57;;;15.30;99.90;;;;;;4960035;28;20031;-96
2021/08/15 01:12:00;;;;;;;17.05;7.55;;;15.30;99.90;;;;;;4959580;28;20034;-96
2021/08/15 01:14:26;;;;;;;11.32;6.60;;;15.30;99.90;;;;;;4958430;28;20027;-94
2021/08/15 01:16:52;;;;;;;10.57;6.03;;;15.30;99.90;;;;;;4957874;28;20445;-93
2021/08/15 01:19:17;;;;;;;14.88;7.85;;;15.20;99.90;;;;;;4957933;28;20034;-94
2021/08/15 01:21:47;;;;;;;12.02;6.78;;;15.30;99.90;;;;;;4958236;28;20027;-94
2021/08/15 01:24:16;;;;;;;12.48;7.32;;;15.30;99.90;;;;;;4956395;28;20035;-95
2021/08/15 01:26:44;;;;;;;16.40;7.85;;;15.30;99.90;;;;;;4957831;28;20034;-96
2021/08/15 01:29:10;;;;;;;13.77;7.80;;;15.30;99.90;;;;;;4957324;28;20054;-94
2021/08/15 01:31:35;;;;;;;13.98;7.65;;;15.30;99.90;;;;;;4958484;28;20026;-94
2021/08/15 01:34:01;;;;;;;13.63;7.18;;;15.20;99.90;;;;;;4958344;28;20066;-93
2021/08/15 01:36:27;;;;;;;12.43;7.85;;;15.20;99.90;;;;;;4957934;28;20497;-94
2021/08/15 01:38:52;;;;;;;12.88;6.88;;;15.20;99.90;;;;;;4960951;28;20023;-93
2021/08/15 01:41:19;;;;;;;12.13;6.60;;;15.20;99.90;;;;;;4958104;28;20082;-94
2021/08/15 01:43:59;;;;;;;11.68;7.25;;;15.20;99.90;;;;;;4957558;28;20038;-94
2021/08/15 01:46:26;;;;;;;11.60;6.73;;;15.20;99.90;;;;;;4957242;28;20019;-94
2021/08/15 01:48:53;;;;;;;13.77;7.15;;;15.20;99.90;;;;;;4957047;28;20472;-92
2021/08/15 01:51:19;;;;;;;10.85;6.40;;;15.20;99.90;;;;;;4956922;28;20035;-93
2021/08/15 01:53:47;;;;;;;14.25;7.55;;;15.30;99.90;;;;;;4956944;28;20019;-92
2021/08/15 01:56:13;;;;;;;14.30;5.95;;;15.20;99.90;;;;;;4956905;28;20046;-93
2021/08/15 01:58:39;;;;;;;14.60;6.70;;;15.30;99.90;;;;;;4957025;28;20084;-93
2021/08/15 02:01:05;;;;;;;13.48;7.65;;;15.30;99.90;;;;;;4956803;28;20027;-93
2021/08/15 02:03:31;;;;;;;12.38;7.95;;;15.30;99.90;;;;;;4956693;28;20034;-94
2021/08/15 02:05:57;;;;;;;13.95;8.10;;;15.20;99.90;;;;;;4957358;28;20034;-95
2021/08/15 02:08:23;;;;;;;14.32;7.45;;;15.20;99.90;;;;;;4957007;28;20027;-95
2021/08/15 02:10:50;;;;;;;11.48;6.13;;;15.10;99.90;;;;;;4956706;28;20031;-95
2021/08/15 02:13:15;;;;;;;11.85;7.18;;;15.10;99.90;;;;;;4956680;28;20023;-94
2021/08/15 02:15:41;;;;;;;15.50;7.50;;;15.10;99.90;;;;;;4956473;28;20030;-94
2021/08/15 02:18:07;;;;;;;15.20;7.20;;;15.20;99.90;;;;;;4956235;28;20031;-95
2021/08/15 02:20:35;;;;;;;13.30;7.07;;;15.20;99.90;;;;;;4956925;28;20054;-96
2021/08/15 02:23:01;;;;;;;10.90;6.55;;;15.20;99.90;;;;;;4956664;28;20022;-95
2021/08/15 02:25:28;;;;;;;14.90;7.32;;;15.20;99.90;;;;;;4956463;28;20085;-95
2021/08/15 02:27:54;;;;;;;12.32;6.65;;;15.20;99.90;;;;;;4956381;28;20481;-96
2021/08/15 02:30:22;;;;;;;12.50;6.90;;;15.20;99.90;;;;;;4956787;28;20033;-95
2021/08/15 02:32:50;;;;;;;11.02;6.70;;;15.20;99.90;;;;;;4956434;28;20023;-96
2021/08/15 02:35:17;;;;;;;16.70;8.05;;;15.20;99.90;;;;;;4955745;28;20023;-96
2021/08/15 02:37:46;;;;;;;11.30;6.13;;;15.20;99.90;;;;;;4981293;28;20062;-94
2021/08/15 02:40:13;;;;;;;11.60;6.95;;;15.20;99.90;;;;;;4956213;28;20026;-95
2021/08/15 02:42:41;;;;;;;9.77;6.55;;;15.20;99.90;;;;;;4956609;28;20042;-95
2021/08/15 02:45:09;;;;;;;12.38;7.25;;;15.20;99.90;;;;;;4956520;28;20027;-95
2021/08/15 02:47:35;;;;;;;12.60;6.53;;;15.20;99.90;;;;;;4956300;28;20162;-94
2021/08/15 02:50:01;;;;;;;14.23;7.35;;;15.10;99.90;;;;;;4956242;28;21030;-95
2021/08/15 02:52:27;;;;;;;14.25;7.15;;;15.10;99.90;;;;;;4956250;28;20030;-96
2021/08/15 02:54:53;;;;;;;15.80;8.32;;;15.20;99.90;;;;;;4955806;28;20038;-96
2021/08/15 02:57:19;;;;;;;13.32;8.50;;;15.10;99.90;;;;;;4956636;28;20037;-95
2021/08/15 02:59:45;;;;;;;14.02;7.00;;;15.10;99.90;;;;;;4956623;28;20030;-96
2021/08/15 03:02:13;;;;;;;12.93;8.38;;;15.20;99.90;;;;;;4956682;28;20039;-96
2021/08/15 03:04:39;;;;;;;14.10;7.75;;;15.20;99.90;;;;;;4957678;28;20105;-96
2021/08/15 03:07:04;;;;;;;17.63;7.75;;;15.20;99.90;;;;;;4962411;28;20050;-96
2021/08/15 03:09:30;;;;;;;15.35;8.82;;;15.10;99.90;;;;;;4966547;28;20058;-95
2021/08/15 03:11:57;;;;;;;14.82;8.98;;;15.10;99.90;;;;;;4956545;28;20393;-96
2021/08/15 03:14:23;;;;;;;16.65;8.85;;;15.10;99.90;;;;;;4956282;28;20027;-95
2021/08/15 03:16:49;;;;;;;13.77;8.02;;;15.10;99.90;;;;;;4956124;28;20415;-95
2021/08/15 03:19:14;;;;;;;16.40;9.13;;;15.10;99.90;;;;;;4956130;28;20027;-96
2021/08/15 03:21:40;;;;;;;13.80;8.00;;;15.00;99.90;;;;;;4956116;28;20402;-95
2021/08/15 03:24:06;;;;;;;16.35;8.30;;;15.10;99.90;;;;;;4956163;28;20027;-95
2021/08/15 03:26:41;;;;;;;15.43;8.48;;;15.10;99.90;;;;;;4955676;28;20023;-96
2021/08/15 03:29:07;;;;;;;17.10;8.80;;;15.10;99.90;;;;;;4955986;28;20031;-96
2021/08/15 03:31:32;;;;;;;12.45;6.90;;;15.10;99.90;;;;;;4955952;28;20101;-96
2021/08/15 03:33:58;;;;;;;13.13;7.53;;;15.10;99.90;;;;;;4956537;28;20023;-95
2021/08/15 03:36:26;;;;;;;14.25;8.43;;;15.20;99.90;;;;;;4956515;28;20062;-95
2021/08/15 03:38:52;;;;;;;13.98;8.10;;;15.20;99.90;;;;;;4956850;28;20027;-96
2021/08/15 03:41:18;;;;;;;18.83;9.80;;;15.20;99.90;;;;;;4959396;28;20031;-96
2021/08/15 03:43:44;;;;;;;15.38;7.80;;;15.20;99.90;;;;;;4962302;28;20476;-95
2021/08/15 03:46:09;;;;;;;15.25;8.57;;;15.20;99.90;;;;;;4961593;28;20476;-95
2021/08/15 03:48:35;;;;;;;12.48;7.97;;;15.10;99.90;;;;;;4960543;28;20051;-95
2021/08/15 03:51:01;;;;;;;12.23;7.40;;;15.20;99.90;;;;;;4958434;28;20041;-96
2021/08/15 03:53:27;;;;;;;15.23;8.27;;;15.20;99.90;;;;;;4957555;28;20043;-96
2021/08/15 03:55:52;;;;;;;15.73;8.27;;;15.20;99.90;;;;;;4957295;28;20124;-96
2021/08/15 03:58:18;;;;;;;13.68;7.10;;;15.20;99.90;;;;;;4958433;28;20028;-95
2021/08/15 04:00:44;;;;;;;13.07;7.30;;;15.20;99.90;;;;;;4960792;28;20129;-96
2021/08/15 04:03:15;;;;;;;12.60;7.03;;;15.20;99.90;;;;;;4960489;28;20158;-96
2021/08/15 04:05:42;;;;;;;13.73;7.25;;;15.20;99.90;;;;;;4959940;28;20023;-95
2021/08/15 04:08:08;;;;;;;11.65;6.38;;;15.30;99.90;;;;;;4959314;28;20022;-95
2021/08/15 04:10:37;;;;;;;10.95;7.00;;;15.30;99.90;;;;;;4959182;28;20477;-95
2021/08/15 04:13:04;;;;;;;11.25;7.22;;;15.30;99.90;;;;;;4983471;28;20015;-95
2021/08/15 04:15:30;;;;;;;9.90;6.22;;;15.40;99.90;;;;;;4958996;28;20030;-95
2021/08/15 04:17:56;;;;;;;7.65;5.65;;;15.40;99.90;;;;;;4959166;28;20026;-95
2021/08/15 04:20:25;;;;;;;12.27;5.53;;;15.40;99.90;;;;;;4958635;28;20070;-96
2021/08/15 04:22:51;;;;;;;11.50;5.97;;;15.50;99.90;;;;;;4958943;28;20031;-95
2021/08/15 04:25:17;;;;;;;10.68;6.35;;;15.50;99.90;;;;;;4959283;28;20045;-95
2021/08/15 04:27:43;;;;;;;11.57;5.40;;;15.60;99.90;;;;;;4959753;28;20101;-96
2021/08/15 04:30:11;;;;;;;8.00;5.65;;;15.60;99.90;;;;;;4960169;28;20109;-96
2021/08/15 04:32:37;;;;;;;10.73;5.93;;;15.60;99.90;;;;;;4960834;28;20023;-96
2021/08/15 04:35:04;;;;;;;9.23;5.63;;;15.60;99.90;;;;;;4962956;28;20038;-95
2021/08/15 04:37:30;;;;;;;10.82;5.97;;;15.60;99.90;;;;;;4974984;28;20057;-96
2021/08/15 04:39:56;;;;;;;8.52;5.32;;;15.60;99.90;;;;;;4961930;28;20026;-95
2021/08/15 04:42:22;;;;;;;10.95;5.20;;;15.60;99.90;;;;;;4962234;28;20101;-96
2021/08/15 04:44:47;;;;;;;7.10;5.05;;;15.60;99.90;;;;;;4963831;28;20015;-96
2021/08/15 04:47:13;;;;;;;8.63;4.97;;;15.60;99.90;;;;;;4959777;28;20030;-96
2021/08/15 04:49:39;;;;;;;10.60;5.22;;;15.60;99.90;;;;;;4961085;28;20027;-96
2021/08/15 04:52:07;;;;;;;6.60;4.82;;;15.60;99.90;;;;;;4961119;28;20110;-96
2021/08/15 04:54:33;;;;;;;8.25;4.75;;;15.70;99.90;;;;;;4959512;28;20122;-96
2021/08/15 04:57:00;;;;;;;8.57;4.88;;;15.70;99.90;;;;;;4959326;28;20117;-96
2021/08/15 04:59:26;;;;;;;8.27;4.65;;;15.70;99.90;;;;;;4959360;28;20509;-96
2021/08/15 05:01:52;;;;;;;5.45;4.05;;;15.70;99.90;;;;;;4959448;28;20114;-95
2021/08/15 05:04:19;;;;;;;6.55;4.53;;;15.70;99.90;;;;;;4959762;28;20019;-96
2021/08/15 05:06:45;;;;;;;5.38;4.25;;;15.70;99.90;;;;;;4959770;28;20031;-95
2021/08/15 05:09:11;;;;;;;5.85;4.05;;;15.70;99.90;;;;;;4959444;28;20050;-94
2021/08/15 05:11:40;;;;;;;6.93;3.97;;;15.80;99.90;;;;;;4959627;28;20031;-96
2021/08/15 05:14:06;;;;;;;5.28;4.18;;;15.80;99.90;;;;;;4958790;28;20022;-95
2021/08/15 05:16:33;;;;;;;8.43;4.43;;;15.80;99.90;;;;;;4958747;28;20035;-96
2021/08/15 05:18:58;;;;;;;6.10;3.92;;;15.80;99.90;;;;;;4959366;28;20035;-96
2021/08/15 05:21:24;;;;;;;4.82;3.75;;;15.90;99.90;;;;;;4959170;28;20023;-95
2021/08/15 05:23:50;;;;;;;5.07;3.40;;;15.80;99.90;;;;;;4959989;28;20027;-96
2021/08/15 05:26:16;;;;;;;5.65;3.88;;;15.90;99.90;;;;;;4958148;28;20026;-95
2021/08/15 05:28:42;;;;;;;5.60;3.65;;;15.90;99.90;;;;;;4958324;28;20054;-96
2021/08/15 05:31:08;;;;;;;5.75;3.47;;;15.90;99.90;;;;;;4958311;28;20027;-96
2021/08/15 05:33:33;;;;;;;3.80;2.97;;;15.90;99.90;;;;;;4958360;28;20033;-94
2021/08/15 05:35:59;;;;;;;4.20;2.83;;;15.90;99.90;;;;;;4959584;28;20022;-95
2021/08/15 05:38:25;;;;;;;6.15;3.58;;;15.90;99.90;;;;;;4960343;28;20033;-96
2021/08/15 05:40:50;;;;;;;5.80;3.38;;;15.90;99.90;;;;;;4958581;28;20025;-95
2021/08/15 05:43:16;;;;;;;4.43;3.30;;;15.90;99.90;;;;;;4960090;28;20472;-96
2021/08/15 05:45:45;;;;;;;4.03;3.30;;;15.90;99.90;;;;;;4959133;28;20079;-95
2021/08/15 05:48:10;;;;;;;6.57;3.03;;;15.90;99.90;;;;;;4959240;28;20535;-96
2021/08/15 05:50:36;;;;;;;6.22;2.47;;;16.00;99.90;;;;;;4960300;28;20035;-96
2021/08/15 05:53:02;;;;;;;3.97;2.95;;;16.00;99.90;;;;;;4966993;28;20038;-96
2021/08/15 05:55:30;;;;;;;5.63;3.00;;;16.00;99.90;;;;;;4962896;28;20061;-96
2021/08/15 05:57:56;;;;;;;5.35;2.75;;;16.00;99.90;;;;;;4961131;28;20042;-96
2021/08/15 06:00:22;;;;;;;2.83;2.42;;;16.00;99.90;;;;;;4960704;28;20023;-95
2021/08/15 06:02:47;;;;;;;3.45;2.47;;;16.00;99.90;;;;;;4959821;28;20029;-95
2021/08/15 06:05:14;;;;;;;3.08;2.75;;;16.10;99.90;;;;;;4964885;28;20050;-95
2021/08/15 06:07:43;;;;;;;3.55;2.67;;;16.10;99.90;;;;;;4965247;28;20039;-96
2021/08/15 06:10:09;;;;;;;4.60;2.83;;;16.10;99.90;;;;;;4958411;28;20424;-95
2021/08/15 06:12:36;;;;;;;4.53;3.10;;;16.10;99.90;;;;;;4956892;28;20018;-95
2021/08/15 06:15:03;;;;;;;4.05;2.88;;;16.10;99.90;;;;;;4957602;28;20041;-96
2021/08/15 06:17:32;;;;;;;4.05;2.85;;;16.20;99.90;;;;;;4956685;28;20031;-96
2021/08/15 06:19:58;;;;;;;4.35;2.92;;;16.20;99.90;;;;;;4957284;28;20038;-95
2021/08/15 06:22:24;;;;;;;3.55;2.58;;;16.20;99.90;;;;;;4956806;28;20031;-96
2021/08/15 06:24:53;;;;;;;3.10;2.80;;;16.20;99.90;;;;;;4958034;28;20022;-96
2021/08/15 06:27:21;;;;;;;4.70;3.25;;;16.20;99.90;;;;;;4963121;28;20023;-95
2021/08/15 06:29:47;;;;;;;3.17;2.30;;;16.10;99.90;;;;;;4968390;28;20023;-96
2021/08/15 06:32:13;;;;;;;2.42;2.10;;;16.10;99.90;;;;;;4968393;28;20031;-96
2021/08/15 06:34:39;;;;;;;2.33;1.85;;;16.10;99.90;;;;;;4968865;28;20045;-96
2021/08/15 06:37:06;;;;;;;3.22;1.48;;;16.10;99.90;;;;;;4966578;28;20043;-96
2021/08/15 06:39:39;;;;;;;1.50;1.35;;;16.10;99.90;;;;;;4969846;28;20098;-96
2021/08/15 07:01:43;;;;;;;1.90;1.08;;;16.10;99.90;;;;;;5736099;23;20134;-95
2021/08/15 07:04:09;;;;;;;4.25;1.30;;;16.10;99.90;;;;;;5275676;23;20111;-93
2021/08/15 07:06:38;;;;;;;3.50;1.10;;;16.20;99.90;;;;;;4954528;28;20048;-95
2021/08/15 07:26:21;;;;;;;2.60;0.95;;;16.50;99.90;;;;;;5673354;23;20075;-95
2021/08/15 07:46:06;;;;;;;4.15;2.92;;;16.60;99.90;;;;;;4890789;29;20146;-96
2021/08/15 07:48:32;;;;;;;3.60;2.55;;;16.70;99.90;;;;;;4869244;29;20037;-96
2021/08/15 07:50:57;;;;;;;6.82;3.85;;;16.70;99.90;;;;;;4867131;29;20036;-96
2021/08/15 07:53:26;;;;;;;4.22;3.22;;;16.70;99.90;;;;;;4870654;29;20484;-96
2021/08/15 07:55:55;;;;;;;3.83;3.10;;;16.80;99.90;;;;;;4861151;29;20034;-96
2021/08/15 07:58:22;;;;;;;6.25;4.30;;;16.80;99.90;;;;;;5347262;23;20048;-96
2021/08/15 08:00:48;;;;;;;7.28;4.10;;;16.80;99.90;;;;;;4904680;29;20099;-95
2021/08/15 08:03:18;;;;;;;5.85;4.85;;;16.90;99.90;;;;;;4887989;29;20115;-94
2021/08/15 08:05:44;;;;;;;5.70;4.57;;;16.90;99.90;;;;;;4888226;29;20104;-96
2021/08/15 08:08:11;;;;;;;5.55;4.75;;;16.90;99.90;;;;;;4888335;29;20096;-95
2021/08/15 08:10:37;;;;;;;5.85;5.18;;;16.90;99.90;;;;;;4892161;29;20013;-95
2021/08/15 08:13:06;;;;;;;4.78;4.07;;;16.90;99.90;;;;;;4907987;29;20049;-93
2021/08/15 08:15:32;;;;;;;7.28;4.28;;;16.90;99.90;;;;;;4902505;29;20044;-92
2021/08/15 08:17:58;;;;;;;5.82;3.45;;;16.90;99.90;;;;;;4891419;29;20028;-95
2021/08/15 08:20:26;;;;;;;4.97;3.30;;;16.90;99.90;;;;;;4903490;29;20437;-94
2021/08/15 08:23:02;;;;;;;4.88;3.40;;;16.90;99.90;;;;;;4901256;29;20032;-95
2021/08/15 08:25:31;;;;;;;4.38;3.10;;;17.00;99.90;;;;;;4895817;29;20033;-95
2021/08/15 08:28:23;;;;;;;4.13;3.25;;;17.10;99.90;;;;;;4898049;29;20032;-94
2021/08/15 08:30:49;;;;;;;4.65;3.45;;;17.20;99.90;;;;;;4884300;29;20043;-96
2021/08/15 08:33:16;;;;;;;7.15;4.97;;;17.30;99.90;;;;;;4894213;29;20036;-94
2021/08/15 08:35:42;;;;;;;7.93;6.43;;;17.30;99.90;;;;;;4891711;29;20040;-95
2021/08/15 08:38:08;;;;;;;8.50;6.13;;;17.30;99.90;;;;;;4895736;29;20050;-95
2021/08/15 08:40:34;;;;;;;8.48;6.47;;;17.40;99.90;;;;;;4901080;29;20088;-95
2021/08/15 08:43:00;;;;;;;9.02;7.22;;;17.40;99.90;;;;;;4901353;29;20119;-94
2021/08/15 08:45:30;;;;;;;10.70;7.55;;;17.50;99.90;;;;;;4899052;29;20080;-95
2021/08/15 08:48:42;;;;;;;6.78;3.97;;;17.50;99.90;;;;;;4910205;29;20024;-95
2021/08/15 08:51:09;;;;;;;8.70;3.90;;;17.50;99.90;;;;;;4909358;29;20037;-95
2021/08/15 08:53:38;;;;;;;9.27;3.55;;;17.40;99.90;;;;;;4904252;29;20107;-94
2021/08/15 08:56:24;;;;;;;7.85;2.70;;;17.30;99.90;;;;;;4921048;29;20463;-96
2021/08/15 09:33:48;;;;;;;7.07;1.70;;;17.60;99.90;;;;;;5791533;23;21033;-94
2021/08/15 09:36:25;;;;;;;11.57;1.70;;;17.60;99.90;;;;;;4916867;29;20048;-96
2021/08/15 09:38:58;;;;;;;8.38;1.70;;;17.70;99.90;;;;;;4895067;29;20175;-92
2021/08/15 09:41:29;;;;;;;7.97;1.85;;;17.80;99.90;;;;;;4896564;29;20119;-94
2021/08/15 09:44:21;;;;;;;11.10;1.90;;;17.90;99.90;;;;;;4895540;29;20047;-95
2021/08/15 09:47:05;;;;;;;6.68;1.50;;;18.00;99.90;;;;;;4898598;29;20052;-93
2021/08/15 09:49:37;;;;;;;8.95;2.10;;;18.00;99.90;;;;;;4904005;29;20056;-94
2021/08/15 09:52:04;;;;;;;9.32;1.88;;;18.10;99.90;;;;;;4904225;29;20028;-94
2021/08/15 09:54:32;;;;;;;8.48;1.85;;;18.10;99.90;;;;;;4900014;29;20071;-95
2021/08/15 09:57:04;;;;;;;8.93;2.13;;;18.10;99.90;;;;;;4902954;29;20044;-93
2021/08/15 09:59:35;;;;;;;6.07;1.65;;;18.20;99.90;;;;;;4901347;29;20024;-91
2021/08/15 10:02:02;;;;;;;9.13;2.22;;;18.20;99.90;;;;;;4903497;29;20048;-92
2021/08/15 10:04:28;;;;;;;7.88;1.70;;;18.20;99.90;;;;;;4896118;29;20513;-92
2021/08/15 10:06:56;;;;;;;5.47;1.88;;;18.40;99.90;;;;;;4889545;29;20043;-92
2021/08/15 10:09:26;;;;;;;7.38;2.33;;;18.60;99.90;;;;;;4893350;29;20064;-92
2021/08/15 10:11:52;;;;;;;10.32;3.83;;;18.70;99.90;;;;;;4895566;29;20051;-92
2021/08/15 10:14:19;;;;;;;12.75;3.33;;;19.00;99.90;;;;;;4894606;29;20041;-92
2021/08/15 10:16:57;;;;;;;9.55;3.00;;;19.10;99.00;;;;;;4891623;29;20035;-93
2021/08/15 10:19:38;;;;;;;8.15;2.55;;;19.30;98.10;;;;;;4899586;29;20467;-93
2021/08/15 10:22:04;;;;;;;12.40;3.17;;;19.30;96.80;;;;;;4904798;29;20561;-91
2021/08/15 10:24:47;;;;;;;7.15;2.10;;;19.30;96.00;;;;;;4903402;29;20032;-91
2021/08/15 10:27:41;;;;;;;7.05;2.65;;;19.40;95.50;;;;;;4894500;29;20025;-92
2021/08/15 10:30:13;;;;;;;10.57;2.38;;;19.40;94.90;;;;;;4894644;29;20032;-92
2021/08/15 10:32:54;;;;;;;7.53;2.28;;;19.40;94.70;;;;;;4894824;29;20494;-92
2021/08/15 10:35:20;;;;;;;11.85;2.53;;;19.50;94.50;;;;;;4886637;29;20040;-92
2021/08/15 10:37:50;;;;;;;11.07;2.25;;;19.50;94.60;;;;;;4882388;29;20025;-91
2021/08/15 10:40:38;;;;;;;11.35;3.10;;;19.60;94.40;;;;;;4881937;29;20020;-92
2021/08/15 10:43:06;;;;;;;7.25;2.40;;;19.60;94.00;;;;;;4886911;29;20379;-93
2021/08/15 10:45:32;;;;;;;17.48;2.83;;;19.50;93.90;;;;;;4883387;29;20036;-93
2021/08/15 10:48:10;;;;;;;10.32;2.35;;;19.50;93.40;;;;;;4881930;29;20033;-93
2021/08/15 10:50:48;;;;;;;9.40;2.03;;;19.40;93.40;;;;;;4882597;29;20051;-91
2021/08/15 10:53:26;;;;;;;8.48;2.53;;;19.40;93.30;;;;;;4881323;29;20107;-90
2021/08/15 10:55:55;;;;;;;8.82;1.90;;;19.20;92.90;;;;;;4881688;29;20075;-89
2021/08/15 10:58:40;;;;;;;9.40;2.10;;;19.10;93.20;;;;;;4883310;29;20029;-90
2021/08/15 11:01:19;;;;;;;12.77;2.58;;;19.10;93.40;;;;;;4888015;29;20071;-91
2021/08/15 11:03:48;;;;;;;8.55;2.20;;;19.00;93.20;;;;;;4899866;29;20101;-90
2021/08/15 11:06:32;;;;;;;8.35;2.00;;;18.90;93.40;;;;;;4889662;29;20107;-91
2021/08/15 11:09:08;;;;;;;9.98;2.10;;;18.80;93.50;;;;;;4887064;29;20025;-92
2021/08/15 11:11:37;;;;;;;11.32;3.15;;;18.80;93.60;;;;;;4888192;29;20044;-90
2021/08/15 11:14:26;;;;;;;7.93;2.20;;;18.70;93.70;;;;;;4885899;29;20020;-91
2021/08/15 11:17:13;;;;;;;12.73;2.30;;;18.70;93.70;;;;;;4881228;29;20044;-90
2021/08/15 11:19:41;;;;;;;9.57;2.92;;;18.70;93.80;;;;;;4874075;29;20059;-92
2021/08/15 11:22:26;;;;;;;11.10;2.38;;;18.70;93.90;;;;;;4902249;29;20032;-90
2021/08/15 11:24:58;;;;;;;6.78;2.20;;;18.80;94.00;;;;;;4882327;29;20020;-90
2021/08/15 11:27:36;;;;;;;8.75;2.60;;;18.90;94.10;;;;;;4880566;29;20017;-88
2021/08/15 11:30:12;;;;;;;7.82;2.10;;;19.10;94.00;;;;;;4880707;29;20096;-90
2021/08/15 11:32:39;;;;;;;9.85;2.13;;;19.20;93.70;;;;;;4880797;29;20394;-90
2021/08/15 11:35:11;;;;;;;9.73;2.75;;;19.30;93.50;;;;;;4876443;29;20052;-90
2021/08/15 11:37:47;;;;;;;9.07;2.00;;;19.30;93.50;;;;;;4878369;29;20045;-90
2021/08/15 11:40:15;;;;;;;11.15;2.58;;;19.30;93.10;;;;;;4888970;29;20413;-90
2021/08/15 11:42:55;;;;;;;8.63;1.83;;;19.30;93.20;;;;;;4881742;29;20029;-89
2021/08/15 11:45:32;;;;;;;7.25;2.15;;;19.30;93.50;;;;;;4881448;29;20032;-90
2021/08/15 11:48:10;;;;;;;11.70;2.08;;;19.20;92.90;;;;;;4880348;29;20065;-89
2021/08/15 11:50:38;;;;;;;9.05;1.98;;;19.30;93.20;;;;;;4882141;29;20029;-90
2021/08/15 11:53:15;;;;;;;11.85;1.92;;;19.30;92.80;;;;;;4899613;29;20040;-89
2021/08/15 11:55:41;;;;;;;7.00;2.33;;;19.40;92.60;;;;;;4881291;29;20040;-90
2021/08/15 11:58:11;;;;;;;8.05;1.50;;;19.50;92.20;;;;;;4881946;29;20041;-88
2021/08/15 12:00:37;;;;;;;11.38;1.95;;;19.50;91.90;;;;;;4882804;29;20063;-88
2021/08/15 12:03:10;;;;;;;11.15;2.33;;;19.60;92.00;;;;;;4882167;29;20033;-87
2021/08/15 12:05:45;;;;;;;6.47;1.92;;;19.80;91.70;;;;;;4898862;29;20029;-91
2021/08/15 12:08:14;;;;;;;7.40;1.63;;;20.10;91.40;;;;;;4885518;29;20124;-96
2021/08/15 12:10:42;;;;;;;8.20;1.35;;;20.40;90.90;;;;;;4883208;29;20064;-93
2021/08/15 12:13:19;;;;;;;10.65;2.03;;;20.70;90.60;;;;;;4884036;29;20655;-92
2021/08/15 12:15:52;;;;;;;7.15;1.52;;;20.90;90.10;;;;;;4883239;29;20120;-92
2021/08/15 12:18:41;;;;;;;5.03;1.30;;;21.10;88.70;;;;;;4883216;29;20044;-94
2021/08/15 12:21:25;;;;;;;8.55;1.80;;;21.10;87.70;;;;;;4886811;29;20084;-94
2021/08/15 12:24:13;;;;;;;5.25;1.85;;;21.20;87.90;;;;;;4887211;29;20503;-94
2021/08/15 12:27:14;;;;;;;11.80;2.05;;;21.20;87.20;;;;;;4886406;29;20490;-94
2021/08/15 12:29:44;;;;;;;5.32;1.52;;;21.20;87.20;;;;;;4882603;29;20033;-93
2021/08/15 12:32:12;;;;;;;;;;;21.20;87.50;;;;;;4892789;29;20032;-93
2021/08/15 12:34:44;;;;;;;4.75;1.60;;;21.20;87.70;;;;;;4903137;29;21323;-93
2021/08/15 12:37:21;;;;;;;14.10;2.17;;;21.10;87.70;;;;;;4924106;29;20032;-95
2021/08/15 12:39:59;;;;;;;6.70;1.70;;;21.00;87.70;;;;;;4928648;29;20036;-94
2021/08/15 12:42:24;;;;;;;5.63;1.80;;;20.90;88.10;;;;;;4931036;29;20032;-93
2021/08/15 12:44:59;;;;;;;9.13;2.15;;;20.70;88.40;;;;;;4927383;29;20036;-93
2021/08/15 12:47:27;;;;;;;10.85;2.33;;;20.60;89.90;;;;;;4925391;29;20036;-93
2021/08/15 12:50:06;;;;;;;9.18;1.92;;;20.50;90.50;;;;;;4925355;29;20070;-93
2021/08/15 12:52:48;;;;;;;9.00;1.80;;;20.30;90.90;;;;;;4924695;29;20087;-93
2021/08/15 12:55:21;;;;;;;7.63;1.85;;;20.20;91.50;;;;;;4924049;29;20119;-93
2021/08/15 12:57:52;;;;;;;10.50;2.65;;;20.00;91.80;;;;;;4925792;29;20055;-95
2021/08/15 13:00:18;;;;;;;;;;;19.90;92.20;;;;;;4926423;29;20028;-92
2021/08/15 13:02:46;;;;;;;10.43;2.10;;;19.90;92.30;;;;;;4926892;29;20349;-93
2021/08/15 13:05:14;;;;;;;8.77;2.15;;;19.90;92.50;;;;;;4923509;29;20028;-92
2021/08/15 13:07:40;;;;;;;6.57;2.15;;;19.90;92.80;;;;;;4924389;29;20035;-92
2021/08/15 13:10:07;;;;;;;10.13;1.80;;;19.90;93.00;;;;;;4922516;29;20038;-93
2021/08/15 13:12:32;;;;;;;7.32;1.75;;;19.80;93.20;;;;;;4922938;29;20130;-93
2021/08/15 13:15:01;;;;;;;16.45;2.95;;;19.70;93.40;;;;;;4923360;29;20461;-93
2021/08/15 13:17:27;;;;;;;4.95;1.63;;;19.80;93.70;;;;;;4924958;29;20036;-94
2021/08/15 13:19:53;;;;;;;7.93;2.10;;;20.10;94.10;;;;;;4922783;29;20034;-95
2021/08/15 13:22:18;;;;;;;8.57;1.70;;;20.40;94.10;;;;;;4924680;29;20028;-93
2021/08/15 13:24:47;;;;;;;5.65;1.58;;;20.70;94.10;;;;;;4925499;29;20064;-95
2021/08/15 13:27:13;;;;;;;4.10;1.40;;;21.00;93.80;;;;;;4925532;29;20024;-93
2021/08/15 13:29:41;;;;;;;4.75;1.40;;;21.10;93.10;;;;;;4927124;29;20032;-93
2021/08/15 13:32:10;;;;;;;7.07;1.90;;;21.10;92.80;;;;;;4914800;29;20040;-93
2021/08/15 13:34:36;;;;;;;5.15;1.38;;;20.90;92.40;;;;;;4926074;29;20058;-96
2021/08/15 13:37:04;;;;;;;7.05;2.17;;;20.70;92.70;;;;;;4931961;29;20040;-92
2021/08/15 13:39:29;;;;;;;6.60;1.60;;;20.50;93.00;;;;;;4923496;29;20027;-91
2021/08/15 13:41:55;;;;;;;8.55;1.92;;;20.30;93.90;;;;;;4922415;29;20032;-91
2021/08/15 13:44:21;;;;;;;8.98;2.20;;;20.30;94.60;;;;;;4922172;29;20028;-92
2021/08/15 13:46:47;;;;;;;5.68;1.67;;;20.30;95.10;;;;;;4922735;29;20031;-92
2021/08/15 13:49:12;;;;;;;4.57;1.30;;;20.40;95.30;;;;;;4921759;29;20079;-91
2021/08/15 13:51:39;;;;;;;7.90;1.70;;;20.60;95.60;;;;;;4922128;29;20398;-92
2021/08/15 13:54:06;;;;;;;4.47;1.60;;;20.90;95.30;;;;;;4922192;29;20035;-91
2021/08/15 13:56:35;;;;;;;8.20;2.08;;;21.20;94.80;;;;;;4922041;29;20573;-91
2021/08/15 13:59:01;;;;;;;5.60;1.92;;;21.60;94.50;;;;;;4922171;29;20032;-92
2021/08/15 14:01:27;;;;;;;4.20;1.30;;;22.00;93.80;;;;;;4923057;29;20035;-91
2021/08/15 14:03:52;;;;;;;7.13;1.60;;;22.50;92.70;;;;;;4922763;29;20052;-91
2021/08/15 14:06:18;;;;;;;6.50;1.52;;;22.90;91.80;;;;;;4922286;29;20042;-92
2021/08/15 14:08:44;;;;;;;4.05;1.75;;;23.10;89.60;;;;;;4922038;29;20152;-91
2021/08/15 14:11:10;;;;;;;3.88;1.05;;;23.10;87.80;;;;;;4920916;29;20035;-92
2021/08/15 14:13:36;;;;;;;4.18;1.50;;;23.00;87.30;;;;;;4921947;29;20458;-94
2021/08/15 14:16:04;;;;;;;5.70;1.75;;;23.00;87.20;;;;;;4921058;29;20036;-92
2021/08/15 14:18:30;;;;;;;3.95;1.10;;;22.90;86.60;;;;;;4920971;29;20039;-94
2021/08/15 14:20:56;;;;;;;6.10;1.35;;;22.70;85.90;;;;;;4921280;29;20032;-93